createdAt,value
2018-03-20T00:00:04.887Z,89.19
2018-03-20T00:02:33.212Z,89.21
2018-03-20T00:05:01.640Z,89.37
2018-03-20T00:07:29.936Z,89.31
2018-03-20T00:09:58.356Z,89.32
2018-03-20T00:12:26.688Z,89.35
2018-03-20T00:14:54.980Z,89.37
2018-03-20T00:17:23.512Z,89.31
2018-03-20T00:19:51.982Z,89.29
2018-03-20T00:22:20.473Z,89.49
2018-03-20T00:24:48.813Z,89.33
2018-03-20T00:27:17.160Z,89.18
2018-03-20T00:29:45.532Z,89.58
2018-03-20T00:32:13.900Z,89.45
2018-03-20T00:34:42.452Z,89.60
2018-03-20T00:37:10.714Z,89.57
2018-03-20T00:39:39.052Z,89.99
2018-03-20T00:42:07.319Z,89.83
2018-03-20T00:44:35.596Z,89.77
2018-03-20T00:47:05.778Z,89.89
2018-03-20T00:49:34.181Z,89.89
2018-03-20T00:52:02.618Z,89.98
2018-03-20T00:54:31.077Z,89.57
2018-03-20T00:56:59.514Z,89.38
2018-03-20T00:59:27.861Z,89.46
2018-03-20T01:01:56.173Z,89.68
2018-03-20T01:04:24.514Z,90.02
2018-03-20T01:06:52.796Z,89.98
2018-03-20T01:09:21.133Z,90.06
2018-03-20T01:11:49.444Z,89.47
2018-03-20T01:14:17.856Z,89.80
2018-03-20T01:16:46.233Z,89.68
2018-03-20T01:19:14.552Z,89.70
2018-03-20T01:21:45.348Z,89.56
2018-03-20T01:24:14.619Z,89.56
2018-03-20T01:26:43.913Z,89.56
2018-03-20T01:29:12.292Z,89.36
2018-03-20T01:31:41.354Z,89.51
2018-03-20T01:34:09.976Z,89.51
2018-03-20T01:36:38.414Z,89.35
2018-03-20T01:39:06.729Z,89.24
2018-03-20T01:41:35.004Z,88.97
2018-03-20T01:44:03.315Z,88.98
2018-03-20T01:46:31.589Z,88.88
2018-03-20T01:48:59.971Z,88.91
2018-03-20T01:51:28.364Z,88.95
2018-03-20T01:53:56.720Z,88.85
2018-03-20T01:56:25.828Z,88.86
2018-03-20T01:58:54.201Z,88.75
2018-03-20T02:01:23.504Z,88.61
2018-03-20T02:03:51.827Z,88.26
2018-03-20T02:06:20.208Z,87.75
2018-03-20T02:08:48.795Z,87.43
2018-03-20T02:11:17.091Z,87.23
2018-03-20T02:13:46.398Z,86.69
2018-03-20T02:16:14.746Z,86.28
2018-03-20T02:18:43.975Z,86.13
2018-03-20T02:21:12.437Z,86.21
2018-03-20T02:23:40.725Z,85.63
2018-03-20T02:26:09.075Z,85.63
2018-03-20T02:28:39.071Z,85.47
2018-03-20T02:31:07.475Z,85.26
2018-03-20T02:33:36.748Z,85.41
2018-03-20T02:36:05.061Z,85.04
2018-03-20T02:38:33.384Z,85.00
2018-03-20T02:41:01.717Z,84.78
2018-03-20T02:43:30.067Z,84.11
2018-03-20T02:45:58.365Z,84.51
2018-03-20T02:48:26.845Z,84.49
2018-03-20T02:50:55.171Z,84.70
2018-03-20T02:53:23.480Z,84.31
2018-03-20T02:55:51.790Z,84.25
2018-03-20T02:58:20.159Z,84.02
2018-03-20T03:00:48.794Z,84.51
2018-03-20T03:03:17.125Z,84.50
2018-03-20T03:05:45.542Z,84.55
2018-03-20T03:08:15.666Z,84.60
2018-03-20T03:10:44.011Z,84.58
2018-03-20T03:13:12.479Z,84.43
2018-03-20T03:15:40.787Z,84.49
2018-03-20T03:18:09.925Z,84.40
2018-03-20T03:20:38.266Z,84.11
2018-03-20T03:23:06.847Z,84.46
2018-03-20T03:25:35.148Z,84.64
2018-03-20T03:28:03.457Z,84.52
2018-03-20T03:30:31.863Z,84.54
2018-03-20T03:33:00.230Z,84.35
2018-03-20T03:35:30.691Z,84.41
2018-03-20T03:38:01.259Z,83.57
2018-03-20T03:40:33.551Z,82.25
2018-03-20T03:43:03.080Z,83.32
2018-03-20T03:45:33.257Z,82.65
2018-03-20T03:48:03.175Z,82.21
2018-03-20T03:50:32.705Z,82.73
2018-03-20T03:53:01.147Z,82.82
2018-03-20T03:55:29.611Z,82.68
2018-03-20T03:58:00.850Z,81.79
2018-03-20T04:00:29.252Z,81.90
2018-03-20T04:02:57.629Z,82.36
2018-03-20T04:05:26.101Z,82.48
2018-03-20T04:07:54.537Z,81.87
2018-03-20T04:10:22.945Z,82.94
2018-03-20T04:12:52.015Z,83.37
2018-03-20T04:15:20.301Z,82.79
2018-03-20T04:17:49.489Z,82.25
2018-03-20T04:20:17.802Z,82.22
2018-03-20T04:22:46.120Z,83.02
2018-03-20T04:25:15.247Z,82.37
2018-03-20T04:27:43.597Z,82.49
2018-03-20T04:30:12.735Z,82.70
2018-03-20T04:32:41.089Z,82.52
2018-03-20T04:35:11.006Z,82.20
2018-03-20T04:37:39.389Z,82.17
2018-03-20T04:40:07.686Z,82.35
2018-03-20T04:42:37.735Z,82.79
2018-03-20T04:45:06.145Z,82.66
2018-03-20T04:47:34.765Z,82.90
2018-03-20T04:50:05.812Z,82.13
2018-03-20T04:52:34.219Z,82.92
2018-03-20T04:55:02.683Z,82.96
2018-03-20T04:57:31.013Z,83.25
2018-03-20T05:00:02.004Z,83.57
2018-03-20T05:02:30.483Z,83.44
2018-03-20T05:04:59.602Z,82.73
2018-03-20T05:07:27.947Z,82.88
2018-03-20T05:09:57.956Z,83.65
2018-03-20T05:12:26.286Z,82.74
2018-03-20T05:14:54.608Z,82.04
2018-03-20T05:17:22.951Z,81.90
2018-03-20T05:19:57.161Z,82.29
2018-03-20T05:22:31.177Z,83.21
2018-03-20T05:24:59.695Z,83.41
2018-03-20T05:27:28.017Z,83.33
2018-03-20T05:29:58.203Z,83.15
2018-03-20T05:32:26.564Z,83.17
2018-03-20T05:34:54.907Z,83.35
2018-03-20T05:37:23.362Z,83.52
2018-03-20T05:39:52.145Z,83.21
2018-03-20T05:42:20.565Z,83.16
2018-03-20T05:44:48.874Z,83.47
2018-03-20T05:47:31.797Z,83.51
2018-03-20T05:50:05.785Z,82.84
2018-03-20T05:52:34.312Z,83.26
2018-03-20T05:55:02.637Z,83.24
2018-03-20T05:57:31.742Z,83.13
2018-03-20T06:00:00.132Z,82.74
2018-03-20T06:02:28.419Z,83.14
2018-03-20T06:04:56.908Z,82.84
2018-03-20T06:07:25.245Z,83.05
2018-03-20T06:09:56.315Z,82.71
2018-03-20T06:12:24.695Z,83.07
2018-03-20T06:14:53.064Z,82.48
2018-03-20T06:17:21.886Z,82.23
2018-03-20T06:19:50.320Z,81.38
2018-03-20T06:22:20.424Z,81.44
2018-03-20T06:24:48.700Z,81.26
2018-03-20T06:27:17.144Z,81.19
2018-03-20T06:29:46.228Z,81.14
2018-03-20T06:32:14.772Z,81.41
2018-03-20T06:34:43.091Z,80.92
2018-03-20T06:37:11.558Z,80.97
2018-03-20T06:39:39.956Z,80.60
2018-03-20T06:42:08.989Z,80.48
2018-03-20T06:44:37.307Z,79.98
2018-03-20T06:47:06.948Z,79.67
2018-03-20T06:49:35.392Z,79.60
2018-03-20T06:52:04.496Z,78.30
2018-03-20T06:54:34.570Z,78.63
2018-03-20T06:57:03.017Z,79.31
2018-03-20T06:59:31.380Z,79.32
2018-03-20T07:01:59.788Z,79.24
2018-03-20T07:04:29.080Z,79.38
2018-03-20T07:06:58.681Z,79.12
2018-03-20T07:09:27.048Z,79.58
2018-03-20T07:11:55.407Z,78.75
2018-03-20T07:14:23.838Z,78.43
2018-03-20T07:16:52.265Z,78.22
2018-03-20T07:19:20.810Z,76.60
2018-03-20T07:21:49.087Z,76.93
2018-03-20T07:24:17.430Z,77.50
2018-03-20T07:26:47.505Z,77.19
2018-03-20T07:29:17.054Z,77.37
2018-03-20T07:31:45.351Z,76.67
2018-03-20T07:34:13.655Z,77.20
2018-03-20T07:36:41.996Z,76.53
2018-03-20T07:39:11.020Z,76.64
2018-03-20T07:41:39.376Z,76.10
2018-03-20T07:44:07.789Z,76.38
2018-03-20T07:46:36.170Z,75.18
2018-03-20T07:49:04.518Z,75.84
2018-03-20T07:51:33.020Z,75.87
2018-03-20T07:54:01.404Z,75.98
2018-03-20T07:56:31.455Z,75.73
2018-03-20T07:58:59.867Z,74.14
2018-03-20T08:01:28.170Z,74.54
2018-03-20T08:03:56.658Z,74.65
2018-03-20T08:06:25.100Z,74.62
2018-03-20T08:08:54.230Z,74.34
2018-03-20T08:11:23.364Z,73.70
2018-03-20T08:13:51.788Z,72.96
2018-03-20T08:16:20.224Z,73.21
2018-03-20T08:18:48.538Z,72.50
2018-03-20T08:21:16.937Z,72.41
2018-03-20T08:23:45.222Z,72.77
2018-03-20T08:26:13.554Z,71.86
2018-03-20T08:28:42.099Z,71.90
2018-03-20T08:31:10.408Z,71.28
2018-03-20T08:33:39.798Z,70.18
2018-03-20T08:36:08.135Z,70.61
2018-03-20T08:38:36.487Z,69.36
2018-03-20T08:41:04.788Z,70.24
2018-03-20T08:43:33.147Z,70.81
2018-03-20T08:46:01.501Z,70.06
2018-03-20T08:48:29.822Z,69.22
2018-03-20T08:50:58.154Z,68.77
2018-03-20T08:53:27.282Z,68.16
2018-03-20T08:55:55.766Z,67.05
2018-03-20T08:58:25.004Z,67.82
2018-03-20T09:00:53.833Z,67.24
2018-03-20T09:03:22.289Z,67.71
2018-03-20T09:05:51.369Z,67.61
2018-03-20T09:08:19.778Z,68.40
2018-03-20T09:10:48.231Z,66.48
2018-03-20T09:13:16.565Z,66.24
2018-03-20T09:15:44.881Z,65.28
2018-03-20T09:18:13.261Z,66.62
2018-03-20T09:20:41.535Z,65.75
2018-03-20T09:23:09.845Z,64.21
2018-03-20T09:25:40.313Z,64.66
2018-03-20T09:28:08.623Z,65.88
2018-03-20T09:30:39.697Z,65.93
2018-03-20T09:33:11.893Z,64.95
2018-03-20T09:35:41.470Z,63.95
2018-03-20T09:38:10.055Z,63.54
2018-03-20T09:40:39.141Z,63.90
2018-03-20T09:43:07.451Z,64.14
2018-03-20T09:45:35.773Z,62.06
2018-03-20T09:48:04.155Z,61.56
2018-03-20T09:50:32.434Z,60.13
2018-03-20T09:53:00.739Z,61.29
2018-03-20T09:55:31.260Z,61.82
2018-03-20T09:57:59.739Z,61.11
2018-03-20T10:00:28.020Z,59.78
2018-03-20T10:02:56.312Z,60.62
2018-03-20T10:05:24.653Z,58.19
2018-03-20T10:07:52.951Z,58.37
2018-03-20T10:10:22.966Z,58.33
2018-03-20T10:12:51.374Z,58.09
2018-03-20T10:15:21.531Z,56.53
2018-03-20T10:17:51.676Z,58.01
2018-03-20T10:20:20.217Z,57.37
2018-03-20T10:22:48.649Z,57.22
2018-03-20T10:25:17.275Z,56.11
2018-03-20T10:27:45.645Z,56.11
2018-03-20T10:30:13.947Z,55.25
2018-03-20T10:32:42.394Z,55.67
2018-03-20T10:35:12.593Z,54.53
2018-03-20T10:37:41.137Z,53.79
2018-03-20T10:40:10.432Z,54.42
2018-03-20T10:42:38.773Z,54.67
2018-03-20T10:45:07.113Z,52.03
2018-03-20T10:47:35.496Z,51.68
2018-03-20T10:50:03.826Z,50.89
2018-03-20T10:52:32.193Z,52.04
2018-03-20T10:55:02.429Z,51.04
2018-03-20T10:57:30.787Z,52.57
2018-03-20T10:59:59.148Z,51.56
2018-03-20T11:02:33.041Z,51.18
2018-03-20T11:05:01.597Z,50.96
2018-03-20T11:07:30.100Z,52.66
2018-03-20T11:10:00.175Z,51.87
2018-03-20T11:12:28.588Z,53.01
2018-03-20T11:14:56.975Z,54.43
2018-03-20T11:17:25.401Z,52.55
2018-03-20T11:19:53.883Z,51.17
2018-03-20T11:22:24.681Z,52.24
2018-03-20T11:24:53.070Z,53.68
2018-03-20T11:27:21.401Z,52.64
2018-03-20T11:29:49.709Z,53.05
2018-03-20T11:32:20.710Z,53.61
2018-03-20T11:34:49.014Z,54.13
2018-03-20T11:37:17.552Z,52.44
2018-03-20T11:39:46.751Z,53.61
2018-03-20T11:42:16.663Z,51.64
2018-03-20T11:44:45.398Z,51.47
2018-03-20T11:47:13.789Z,53.48
2018-03-20T11:49:42.100Z,52.41
2018-03-20T11:52:10.385Z,51.64
2018-03-20T11:54:40.478Z,53.33
2018-03-20T11:57:08.831Z,52.60
2018-03-20T11:59:37.135Z,50.52
2018-03-20T12:02:05.564Z,52.18
2018-03-20T12:04:34.087Z,52.10
2018-03-20T12:07:02.539Z,51.71
2018-03-20T12:09:51.386Z,51.47
2018-03-20T12:14:54.576Z,51.10
2018-03-20T12:17:22.917Z,49.76
2018-03-20T12:19:53.272Z,50.27
2018-03-20T12:22:23.963Z,51.34
2018-03-20T12:24:52.317Z,49.80
2018-03-20T12:27:20.665Z,48.58
2018-03-20T12:29:51.365Z,48.35
2018-03-20T12:32:20.006Z,48.35
2018-03-20T12:34:48.288Z,48.01
2018-03-20T12:37:18.233Z,48.68
2018-03-20T12:39:46.653Z,49.05
2018-03-20T12:42:15.010Z,51.08
2018-03-20T12:44:45.047Z,49.73
2018-03-20T12:47:14.198Z,49.74
2018-03-20T12:49:42.527Z,50.51
2018-03-20T12:52:10.797Z,48.22
2018-03-20T12:54:39.181Z,49.65
2018-03-20T12:57:07.727Z,50.85
2018-03-20T12:59:37.752Z,47.62
2018-03-20T13:02:06.143Z,48.40
2018-03-20T13:04:34.533Z,48.63
2018-03-20T13:07:02.850Z,47.82
2018-03-20T13:09:31.253Z,48.53
2018-03-20T13:12:01.996Z,46.28
2018-03-20T13:14:30.309Z,48.80
2018-03-20T13:16:58.743Z,48.86
2018-03-20T13:19:27.096Z,50.72
2018-03-20T13:21:57.108Z,50.64
2018-03-20T13:24:27.208Z,49.85
2018-03-20T13:26:55.655Z,47.45
2018-03-20T13:29:24.042Z,47.20
2018-03-20T13:31:53.580Z,45.63
2018-03-20T13:34:21.966Z,46.07
2018-03-20T13:36:50.296Z,46.76
2018-03-20T13:39:18.737Z,50.61
2018-03-20T13:41:47.047Z,47.69
2018-03-20T13:44:15.395Z,48.46
2018-03-20T13:46:45.341Z,47.61
2018-03-20T13:49:13.683Z,47.47
2018-03-20T13:51:43.634Z,47.25
2018-03-20T13:54:12.071Z,49.42
2018-03-20T13:56:42.267Z,48.40
2018-03-20T13:59:13.545Z,47.11
2018-03-20T14:01:42.024Z,48.89
2018-03-20T14:04:10.395Z,49.72
2018-03-20T14:06:38.750Z,50.93
2018-03-20T14:09:07.092Z,50.04
2018-03-20T14:11:35.376Z,46.92
2018-03-20T14:14:05.292Z,46.31
2018-03-20T14:16:33.628Z,47.53
2018-03-20T14:19:02.069Z,46.72
2018-03-20T14:21:30.409Z,44.92
2018-03-20T14:23:58.830Z,45.98
2018-03-20T14:26:27.155Z,45.34
2018-03-20T14:28:58.517Z,47.49
2018-03-20T14:31:29.653Z,49.48
2018-03-20T14:33:58.269Z,47.71
2018-03-20T14:36:26.635Z,49.84
2018-03-20T14:38:54.932Z,49.13
2018-03-20T14:41:23.268Z,47.78
2018-03-20T14:43:51.691Z,48.27
2018-03-20T14:46:20.056Z,47.08
2018-03-20T14:48:48.354Z,47.93
2018-03-20T14:51:16.704Z,48.95
2018-03-20T14:53:45.086Z,47.98
2018-03-20T14:56:13.512Z,47.37
2018-03-20T14:58:43.200Z,46.55
2018-03-20T15:01:13.409Z,45.38
2018-03-20T15:03:42.758Z,44.42
2018-03-20T15:06:11.059Z,43.94
2018-03-20T15:08:42.028Z,43.07
2018-03-20T15:11:10.560Z,43.91
2018-03-20T15:13:38.952Z,42.15
2018-03-20T15:16:07.424Z,42.38
2018-03-20T15:18:35.688Z,44.87
2018-03-20T15:21:04.012Z,44.97
2018-03-20T15:23:32.481Z,42.44
2018-03-20T15:26:00.930Z,43.05
2018-03-20T15:28:30.363Z,42.60
2018-03-20T15:30:58.872Z,44.52
2018-03-20T15:33:27.188Z,45.19
2018-03-20T15:35:56.230Z,48.40
2018-03-20T15:38:24.593Z,46.17
2018-03-20T15:40:54.092Z,47.98
2018-03-20T15:43:23.574Z,47.19
2018-03-20T15:45:51.957Z,48.04
2018-03-20T15:48:20.296Z,47.35
2018-03-20T15:50:50.373Z,47.97
2018-03-20T15:53:18.816Z,48.89
2018-03-20T15:55:47.171Z,48.59
2018-03-20T15:58:15.482Z,46.96
2018-03-20T16:00:43.860Z,47.87
2018-03-20T16:03:12.198Z,49.04
2018-03-20T16:05:40.544Z,49.80
2018-03-20T16:08:08.958Z,49.21
2018-03-20T16:10:38.215Z,50.70
2018-03-20T16:13:06.660Z,50.35
2018-03-20T16:15:35.495Z,50.13
2018-03-20T16:18:03.853Z,50.68
2018-03-20T16:20:32.303Z,51.44
2018-03-20T16:23:00.766Z,50.55
2018-03-20T16:25:29.987Z,51.63
2018-03-20T16:28:00.870Z,52.61
2018-03-20T16:30:29.267Z,53.62
2018-03-20T16:32:58.583Z,53.14
2018-03-20T16:35:26.928Z,52.47
2018-03-20T16:37:55.981Z,54.12
2018-03-20T16:40:26.905Z,54.79
2018-03-20T16:42:55.253Z,55.29
2018-03-20T16:45:23.803Z,54.34
2018-03-20T16:47:52.255Z,54.85
2018-03-20T16:50:20.580Z,56.17
2018-03-20T16:52:49.176Z,57.31
2018-03-20T16:55:17.545Z,56.87
2018-03-20T16:57:46.517Z,56.19
2018-03-20T17:00:22.451Z,56.79
2018-03-20T17:02:50.904Z,56.33
2018-03-20T17:05:22.911Z,57.28
2018-03-20T17:07:51.770Z,56.87
2018-03-20T17:10:21.185Z,57.43
2018-03-20T17:12:49.746Z,57.88
2018-03-20T17:15:18.068Z,57.79
2018-03-20T17:17:48.236Z,57.08
2018-03-20T17:20:16.712Z,58.81
2018-03-20T17:22:45.056Z,59.84
2018-03-20T17:25:15.294Z,59.58
2018-03-20T17:27:43.663Z,60.60
2018-03-20T17:30:12.456Z,62.30
2018-03-20T17:32:42.553Z,62.03
2018-03-20T17:35:10.941Z,60.88
2018-03-20T17:37:39.409Z,60.91
2018-03-20T17:40:08.550Z,60.19
2018-03-20T17:42:39.841Z,59.82
2018-03-20T17:45:09.923Z,59.76
2018-03-20T17:47:38.512Z,60.34
2018-03-20T17:50:08.646Z,60.77
2018-03-20T17:52:37.134Z,58.64
2018-03-20T17:55:05.488Z,60.01
2018-03-20T17:57:33.841Z,61.14
2018-03-20T18:00:02.317Z,61.27
2018-03-20T18:02:30.644Z,61.55
2018-03-20T18:05:00.876Z,63.23
2018-03-20T18:07:32.864Z,62.79
2018-03-20T18:10:01.243Z,63.43
2018-03-20T18:12:30.422Z,64.15
2018-03-20T18:14:58.707Z,65.88
2018-03-20T18:17:27.191Z,65.84
2018-03-20T18:19:55.623Z,66.60
2018-03-20T18:22:24.007Z,67.56
2018-03-20T18:24:52.943Z,68.45
2018-03-20T18:27:21.346Z,68.92
2018-03-20T18:29:50.437Z,69.39
2018-03-20T18:32:18.924Z,70.28
2018-03-20T18:34:47.290Z,70.81
2018-03-20T18:37:18.443Z,70.81
2018-03-20T18:39:46.835Z,71.03
2018-03-20T18:42:16.230Z,71.97
2018-03-20T18:44:44.652Z,72.18
2018-03-20T18:47:13.090Z,73.18
2018-03-20T18:49:43.314Z,73.67
2018-03-20T18:52:15.727Z,74.58
2018-03-20T18:54:44.408Z,74.68
2018-03-20T18:57:12.844Z,74.39
2018-03-20T18:59:43.372Z,74.93
2018-03-20T19:02:14.504Z,75.61
2018-03-20T19:04:43.029Z,76.08
2018-03-20T19:07:12.980Z,76.97
2018-03-20T19:09:41.538Z,76.99
2018-03-20T19:12:10.830Z,77.70
2018-03-20T19:14:39.291Z,78.00
2018-03-20T19:17:07.606Z,78.09
2018-03-20T19:19:37.875Z,78.34
2018-03-20T19:22:07.251Z,77.77
2018-03-20T19:24:35.649Z,77.72
2018-03-20T19:27:04.218Z,77.74
2018-03-20T19:29:33.416Z,77.83
2018-03-20T19:32:02.005Z,78.19
2018-03-20T19:34:30.576Z,78.45
2018-03-20T19:36:59.085Z,78.62
2018-03-20T19:39:28.502Z,78.45
2018-03-20T19:41:56.955Z,79.06
2018-03-20T19:44:27.583Z,79.20
2018-03-20T19:46:58.210Z,79.65
2018-03-20T19:49:26.736Z,79.81
2018-03-20T19:51:55.196Z,80.12
2018-03-20T19:54:23.650Z,80.28
2018-03-20T19:56:51.981Z,80.18
2018-03-20T19:59:21.432Z,80.68
2018-03-20T20:01:50.019Z,80.21
2018-03-20T20:04:18.516Z,79.95
2018-03-20T20:06:48.706Z,80.28
2018-03-20T20:09:17.127Z,80.37
2018-03-20T20:11:45.580Z,80.26
2018-03-20T20:14:14.109Z,80.73
2018-03-20T20:16:42.461Z,81.20
2018-03-20T20:19:12.742Z,81.53
2018-03-20T20:21:43.933Z,81.62
2018-03-20T20:24:14.922Z,81.42
2018-03-20T20:26:46.011Z,81.57
2018-03-20T20:29:15.497Z,81.82
2018-03-20T20:31:43.929Z,82.41
2018-03-20T20:34:13.117Z,82.46
2018-03-20T20:36:41.629Z,82.29
2018-03-20T20:39:10.189Z,82.13
2018-03-20T20:41:40.403Z,81.97
2018-03-20T20:44:08.947Z,82.33
2018-03-20T20:46:37.349Z,82.79
2018-03-20T20:49:09.511Z,82.57
2018-03-20T20:51:37.980Z,82.95
2018-03-20T20:54:06.517Z,83.18
2018-03-20T20:56:35.181Z,83.29
2018-03-20T20:59:05.218Z,82.51
2018-03-20T21:01:33.705Z,82.15
2018-03-20T21:04:02.940Z,82.22
2018-03-20T21:06:32.436Z,83.04
2018-03-20T21:09:02.710Z,83.25
2018-03-20T21:11:36.332Z,83.27
2018-03-20T21:14:04.867Z,83.18
2018-03-20T21:16:33.375Z,83.30
2018-03-20T21:19:01.768Z,83.79
2018-03-20T21:21:30.275Z,83.67
2018-03-20T21:23:59.535Z,84.19
2018-03-20T21:26:31.029Z,84.86
2018-03-20T21:29:00.437Z,84.64
2018-03-20T21:31:29.591Z,84.63
2018-03-20T21:33:58.091Z,84.60
2018-03-20T21:36:26.492Z,85.02
2018-03-20T21:38:55.074Z,85.21
2018-03-20T21:41:23.632Z,85.22
2018-03-20T21:43:51.942Z,85.57
2018-03-20T21:46:20.611Z,85.31
2018-03-20T21:48:49.054Z,85.37
2018-03-20T21:51:18.405Z,85.20
2018-03-20T21:53:47.788Z,85.05
2018-03-20T21:56:20.859Z,85.28
2018-03-20T21:58:49.295Z,85.62
2018-03-20T22:01:17.651Z,85.82
2018-03-20T22:03:46.038Z,86.17
2018-03-20T22:06:14.543Z,86.17
2018-03-20T22:08:42.840Z,85.99
2018-03-20T22:11:11.193Z,85.96
2018-03-20T22:13:39.621Z,86.61
2018-03-20T22:16:07.897Z,86.80
2018-03-20T22:18:36.427Z,86.84
2018-03-20T22:21:04.972Z,87.03
2018-03-20T22:23:35.608Z,87.39
2018-03-20T22:26:04.145Z,86.97
2018-03-20T22:28:32.687Z,87.27
2018-03-20T22:31:01.108Z,87.67
2018-03-20T22:33:30.444Z,87.54
2018-03-20T22:35:59.054Z,87.52
2018-03-20T22:38:27.545Z,87.46
2018-03-20T22:40:56.171Z,87.51
2018-03-20T22:43:24.611Z,87.44
2018-03-20T22:45:52.952Z,87.37
2018-03-20T22:48:21.282Z,87.73
2018-03-20T22:50:49.597Z,87.78
2018-03-20T22:53:17.950Z,87.83
2018-03-20T22:55:46.270Z,88.07
2018-03-20T22:58:14.865Z,88.23
2018-03-20T23:00:43.154Z,88.10
2018-03-20T23:03:11.545Z,88.17
2018-03-20T23:05:39.944Z,88.30
2018-03-20T23:08:08.468Z,88.34
2018-03-20T23:10:37.580Z,88.60
2018-03-20T23:13:05.889Z,88.70
2018-03-20T23:15:34.236Z,88.56
2018-03-20T23:18:05.253Z,88.83
2018-03-20T23:20:33.829Z,88.79
2018-03-20T23:23:04.306Z,88.89
2018-03-20T23:25:33.377Z,88.83
2018-03-20T23:28:01.908Z,88.79
2018-03-20T23:30:30.203Z,88.93
2018-03-20T23:32:59.865Z,89.04
2018-03-20T23:35:28.204Z,88.87
2018-03-20T23:37:56.686Z,88.98
2018-03-20T23:40:25.057Z,89.09
2018-03-20T23:42:53.397Z,89.36
2018-03-20T23:45:24.279Z,89.29
2018-03-20T23:47:54.403Z,89.27
2018-03-20T23:50:22.794Z,89.25
2018-03-20T23:52:51.118Z,89.07
2018-03-20T23:55:19.430Z,89.06
2018-03-20T23:57:48.592Z,89.33
